Portada
METAR-TAF:

METAR-TAF

Aeropuertos :

Takamatsu, Japón

latitud: 34-13N, longitud: 134-01E, altitud: 185 m

Observación

El informe se hizo hace 51 minutos, a las 23:00 UTC
Viento 2 kt con dirección variable
Temperatura 27°C
Humedad 74%
Presión 1003 hPa
Visibilidad 10 km o más
Escasas nubes a una altura de 2500 ft
Cielo nuboso

METAR: RJOT 272300Z VRB02KT 9999 FEW025 BKN/// 27/22 Q1003

Hora: 08:51 (23:51 UTC)

Pronóstico

El informe se hizo hace 43 minutos, a las 23:08 UTC
Pronóstico válido del 28 a las 00 UTC al 29 a las 06 UTC
Viento 6 kt del noroeste
Visibilidad 10 km o más
Escasas nubes a una altura de 2500 ft
Evolucionando progresivamente
del 28 a las 06 UTC al 28 a las 08 UTC
Viento 6 kt del este-noreste
Evolucionando progresivamente
del 28 a las 12 UTC al 28 a las 15 UTC
Viento 5 kt del suroeste

TAF: RJOT 272308Z 2800/2906 32006KT 9999 FEW025 BECMG 2806/2808 06006KT BECMG 2812/2815 23005KT

Observaciones y pronósticos meteorológicos de más de 4000 aeropuertos (mensajes METAR y TAF).

Los puntos amarillos y rojos representan las estaciones disponibles.

Ponga el ratón en el punto deseado para ver el nombre de la estación.

Haga clic para ver las observaciones y los pronósticos meteorológicos.

Para cambiar el mapa : haga clic en los botones verdes con una cruz de color negro para hacer un zoom, en el botón verde con un guión para alejar o en las flechas verdes para mapas adyacentes.


METAR-TAF: